Time;durP1;ratioP1;P1;durP2;ratioP2;P2;SDS_P1;SDS_P2;PMS_P1;PMS_P2;Temp;Humidity;BMP_temperature;BMP_pressure;BME280_temperature;BME280_humidity;BME280_pressure;Samples;Min_cycle;Max_cycle;Signal;HPM_P1;HPM_P2
2023/12/14 00:00:31;;;;;;;22.88;16.05;;;;;;;;;;10025607;28;20100;-77
2023/12/14 00:05:22;;;;;;;20.98;13.15;;;;;;;;;;10026276;28;20432;-76
2023/12/14 00:10:14;;;;;;;16.23;12.13;;;;;;;;;;10025950;28;20366;-77
2023/12/14 00:15:07;;;;;;;18.58;13.70;;;;;;;;;;10025303;28;20444;-77
2023/12/14 00:19:58;;;;;;;20.75;14.20;;;;;;;;;;10026020;28;20127;-77
2023/12/14 00:24:50;;;;;;;23.80;15.43;;;;;;;;;;10025426;28;20381;-76
2023/12/14 00:29:42;;;;;;;17.98;12.88;;;;;;;;;;10025184;28;20057;-77
2023/12/14 00:34:34;;;;;;;19.13;14.13;;;;;;;;;;10025430;28;20132;-77
2023/12/14 00:39:26;;;;;;;23.88;16.15;;;;;;;;;;10024533;28;20081;-76
2023/12/14 00:44:18;;;;;;;21.17;13.85;;;;;;;;;;10024279;28;20072;-76
2023/12/14 00:49:10;;;;;;;16.00;11.43;;;;;;;;;;10025203;28;20092;-77
2023/12/14 00:54:02;;;;;;;16.08;11.68;;;;;;;;;;10024715;28;20073;-77
2023/12/14 00:58:54;;;;;;;20.48;13.73;;;;;;;;;;10024959;28;20046;-77
2023/12/14 01:03:46;;;;;;;21.55;15.30;;;;;;;;;;10024950;28;20044;-77
2023/12/14 01:08:37;;;;;;;25.30;17.55;;;;;;;;;;10024773;28;20057;-77
2023/12/14 01:13:29;;;;;;;30.05;21.45;;;;;;;;;;10024314;28;20177;-76
2023/12/14 01:18:21;;;;;;;29.98;20.50;;;;;;;;;;10025583;28;20524;-77
2023/12/14 01:23:13;;;;;;;34.00;22.42;;;;;;;;;;10024375;28;20377;-77
2023/12/14 01:28:05;;;;;;;33.15;21.70;;;;;;;;;;10027266;28;20101;-77
2023/12/14 01:32:57;;;;;;;28.67;19.92;;;;;;;;;;10031749;28;20492;-77
2023/12/14 01:37:49;;;;;;;23.45;17.98;;;;;;;;;;10031057;28;20325;-77
2023/12/14 01:42:41;;;;;;;25.95;19.02;;;;;;;;;;10030167;28;20062;-77
2023/12/14 01:47:32;;;;;;;28.90;20.77;;;;;;;;;;10030770;28;20050;-77
2023/12/14 01:52:25;;;;;;;29.75;21.13;;;;;;;;;;10030423;28;20057;-77
2023/12/14 01:57:16;;;;;;;29.50;21.30;;;;;;;;;;10030619;28;20042;-76
2023/12/14 02:02:09;;;;;;;29.05;21.20;;;;;;;;;;10029514;28;20127;-77
2023/12/14 02:07:01;;;;;;;34.85;19.88;;;;;;;;;;10029873;28;20104;-77
2023/12/14 02:11:52;;;;;;;27.25;18.67;;;;;;;;;;10030133;28;20417;-77
2023/12/14 02:16:44;;;;;;;24.42;17.13;;;;;;;;;;10028981;28;20046;-77
2023/12/14 02:21:36;;;;;;;25.77;21.48;;;;;;;;;;10029784;28;20149;-76
2023/12/14 02:26:28;;;;;;;20.85;16.73;;;;;;;;;;10028908;28;20053;-76
2023/12/14 02:31:20;;;;;;;22.77;16.92;;;;;;;;;;10028750;28;20050;-77
2023/12/14 02:36:12;;;;;;;20.98;14.73;;;;;;;;;;10029012;28;20456;-77
2023/12/14 02:41:04;;;;;;;21.58;18.48;;;;;;;;;;10026762;28;20465;-77
2023/12/14 02:46:01;;;;;;;22.63;15.75;;;;;;;;;;10029052;28;20104;-77
2023/12/14 02:50:53;;;;;;;22.50;15.48;;;;;;;;;;10028782;28;20048;-77
2023/12/14 02:55:45;;;;;;;20.15;14.55;;;;;;;;;;10028239;28;20041;-77
2023/12/14 03:00:36;;;;;;;20.30;14.75;;;;;;;;;;10027824;28;20111;-77
2023/12/14 03:05:28;;;;;;;14.75;12.88;;;;;;;;;;10028275;28;20046;-77
2023/12/14 03:10:20;;;;;;;14.75;12.73;;;;;;;;;;10027851;28;20065;-78
2023/12/14 03:15:12;;;;;;;19.15;12.95;;;;;;;;;;10027107;28;20480;-77
2023/12/14 03:20:06;;;;;;;15.15;11.13;;;;;;;;;;10027900;28;20176;-78
2023/12/14 03:24:58;;;;;;;17.45;12.20;;;;;;;;;;10027470;28;20488;-78
2023/12/14 03:29:50;;;;;;;22.17;15.18;;;;;;;;;;10027024;28;20048;-76
2023/12/14 03:34:41;;;;;;;21.77;14.00;;;;;;;;;;10026898;28;20125;-76
2023/12/14 03:39:33;;;;;;;19.48;14.77;;;;;;;;;;10026468;28;20445;-77
2023/12/14 03:44:25;;;;;;;18.50;14.65;;;;;;;;;;10026008;28;20103;-77
2023/12/14 03:49:17;;;;;;;20.88;14.18;;;;;;;;;;10026298;28;20054;-77
2023/12/14 03:54:09;;;;;;;15.43;11.68;;;;;;;;;;10025739;28;20042;-77
2023/12/14 03:59:00;;;;;;;17.60;13.32;;;;;;;;;;10026400;28;20046;-77
2023/12/14 04:03:52;;;;;;;19.27;14.15;;;;;;;;;;10026076;28;20149;-77
2023/12/14 04:08:44;;;;;;;19.85;14.27;;;;;;;;;;10026175;28;20072;-77
2023/12/14 04:13:37;;;;;;;18.13;14.60;;;;;;;;;;10025304;28;20136;-77
2023/12/14 04:18:28;;;;;;;14.82;13.07;;;;;;;;;;10025753;28;20046;-77
2023/12/14 04:23:20;;;;;;;15.75;13.60;;;;;;;;;;10025726;28;20046;-77
2023/12/14 04:28:12;;;;;;;18.70;13.95;;;;;;;;;;10025262;28;20042;-76
2023/12/14 04:33:04;;;;;;;16.52;13.65;;;;;;;;;;10025399;28;20162;-77
2023/12/14 04:37:56;;;;;;;17.50;13.98;;;;;;;;;;10025781;28;20473;-76
2023/12/14 04:42:48;;;;;;;19.48;14.82;;;;;;;;;;10024438;28;20453;-78
2023/12/14 04:47:40;;;;;;;19.92;14.07;;;;;;;;;;10025098;28;20042;-78
2023/12/14 04:52:32;;;;;;;24.48;18.05;;;;;;;;;;10025192;28;20517;-77
2023/12/14 04:57:25;;;;;;;26.83;22.30;;;;;;;;;;10024143;28;20512;-76
2023/12/14 05:02:16;;;;;;;29.58;23.27;;;;;;;;;;10025541;28;20052;-76
2023/12/14 05:07:08;;;;;;;30.13;24.00;;;;;;;;;;10032682;28;20460;-77
2023/12/14 05:12:00;;;;;;;28.27;22.35;;;;;;;;;;10032189;28;20462;-77
2023/12/14 05:16:52;;;;;;;32.17;21.80;;;;;;;;;;10031917;28;20448;-77
2023/12/14 05:21:43;;;;;;;27.02;20.30;;;;;;;;;;10031325;28;20108;-77
2023/12/14 05:26:35;;;;;;;20.95;17.50;;;;;;;;;;10031030;28;20132;-77
2023/12/14 05:31:27;;;;;;;24.33;18.92;;;;;;;;;;10031674;28;20125;-77
2023/12/14 05:36:19;;;;;;;14.60;9.98;;;;;;;;;;10031208;28;20096;-77
2023/12/14 05:41:11;;;;;;;16.58;11.05;;;;;;;;;;10030661;28;20066;-77
2023/12/14 05:46:03;;;;;;;16.40;12.80;;;;;;;;;;10030484;28;20050;-77
2023/12/14 05:50:56;;;;;;;16.35;12.95;;;;;;;;;;10030587;28;20111;-78
2023/12/14 05:55:48;;;;;;;16.10;14.35;;;;;;;;;;10030612;28;20053;-78
2023/12/14 06:00:40;;;;;;;19.10;16.13;;;;;;;;;;10030518;28;20086;-77
2023/12/14 06:05:32;;;;;;;20.08;15.98;;;;;;;;;;10030674;28;20129;-77
2023/12/14 06:10:24;;;;;;;18.73;15.80;;;;;;;;;;10029877;28;20594;-77
2023/12/14 06:15:16;;;;;;;22.63;15.45;;;;;;;;;;10029033;28;20050;-77
2023/12/14 06:20:11;;;;;;;20.70;14.55;;;;;;;;;;10029853;28;20058;-77
2023/12/14 06:25:03;;;;;;;18.13;14.27;;;;;;;;;;10029190;28;20046;-77
2023/12/14 06:29:55;;;;;;;21.67;16.05;;;;;;;;;;10029358;28;20096;-77
2023/12/14 06:34:47;;;;;;;20.38;15.25;;;;;;;;;;10028087;28;20045;-76
2023/12/14 06:39:41;;;;;;;19.27;15.98;;;;;;;;;;10028575;28;20049;-77
2023/12/14 06:44:33;;;;;;;24.85;16.75;;;;;;;;;;10029024;28;20503;-78
2023/12/14 06:49:28;;;;;;;24.40;18.63;;;;;;;;;;10028384;28;20050;-77
2023/12/14 06:54:19;;;;;;;24.35;20.60;;;;;;;;;;10027628;28;20194;-77
2023/12/14 06:59:11;;;;;;;27.20;21.08;;;;;;;;;;10028288;28;20053;-77
2023/12/14 07:04:03;;;;;;;30.67;22.77;;;;;;;;;;10028138;28;20081;-77
2023/12/14 07:08:55;;;;;;;32.78;23.25;;;;;;;;;;10028224;28;20045;-77
2023/12/14 07:13:47;;;;;;;30.30;24.77;;;;;;;;;;10028038;28;20045;-78
2023/12/14 07:18:40;;;;;;;36.72;28.05;;;;;;;;;;10027179;28;20050;-77
2023/12/14 07:23:33;;;;;;;36.80;29.75;;;;;;;;;;10026522;28;20053;-78
2023/12/14 07:28:25;;;;;;;36.88;28.48;;;;;;;;;;10025149;28;20052;-78
2023/12/14 07:33:17;;;;;;;41.08;32.15;;;;;;;;;;10027105;28;20536;-75
2023/12/14 07:38:12;;;;;;;63.33;33.85;;;;;;;;;;10027003;28;20128;-76
2023/12/14 07:43:04;;;;;;;45.97;36.60;;;;;;;;;;10025981;28;20085;-76
2023/12/14 07:47:56;;;;;;;46.60;36.67;;;;;;;;;;10026633;28;20092;-76
2023/12/14 07:52:48;;;;;;;48.67;36.88;;;;;;;;;;10026758;28;20053;-76
2023/12/14 07:57:40;;;;;;;44.50;35.22;;;;;;;;;;10026543;28;20092;-76
2023/12/14 08:02:32;;;;;;;42.00;33.08;;;;;;;;;;10026048;28;20045;-77
2023/12/14 08:07:28;;;;;;;40.55;34.35;;;;;;;;;;10026365;28;20050;-76
2023/12/14 08:12:21;;;;;;;43.47;33.15;;;;;;;;;;10025547;28;20045;-77
2023/12/14 08:17:13;;;;;;;40.60;31.10;;;;;;;;;;10025753;28;20074;-76
2023/12/14 08:22:07;;;;;;;41.95;32.10;;;;;;;;;;10025751;28;20054;-77
2023/12/14 08:26:59;;;;;;;37.42;30.38;;;;;;;;;;10025805;28;20057;-76
2023/12/14 08:31:51;;;;;;;33.65;28.35;;;;;;;;;;10025023;28;20464;-77
2023/12/14 08:36:42;;;;;;;38.50;28.73;;;;;;;;;;10027176;28;20476;-76
2023/12/14 08:41:34;;;;;;;32.38;26.98;;;;;;;;;;10033089;28;20057;-77
2023/12/14 08:46:26;;;;;;;35.00;27.10;;;;;;;;;;10032511;28;20100;-77
2023/12/14 08:51:20;;;;;;;31.95;27.30;;;;;;;;;;10032692;28;20082;-76
2023/12/14 08:56:12;;;;;;;36.80;28.42;;;;;;;;;;10033334;28;20522;-76
2023/12/14 09:01:04;;;;;;;33.10;24.77;;;;;;;;;;10032260;28;20502;-76
2023/12/14 09:05:56;;;;;;;29.23;23.23;;;;;;;;;;10033286;28;20046;-75
2023/12/14 09:10:48;;;;;;;32.80;24.25;;;;;;;;;;10032093;28;20107;-77
2023/12/14 09:15:39;;;;;;;25.98;19.13;;;;;;;;;;10032316;28;20096;-76
2023/12/14 09:20:31;;;;;;;26.80;23.38;;;;;;;;;;10032174;28;20046;-77
2023/12/14 09:25:24;;;;;;;23.83;19.02;;;;;;;;;;10032008;28;20041;-75
2023/12/14 09:30:17;;;;;;;20.48;16.65;;;;;;;;;;10031227;28;20400;-76
2023/12/14 09:35:09;;;;;;;19.73;17.63;;;;;;;;;;10031941;28;20382;-77
2023/12/14 09:40:02;;;;;;;24.30;19.25;;;;;;;;;;10031543;28;20092;-77
2023/12/14 09:44:54;;;;;;;22.25;18.42;;;;;;;;;;10030884;28;20719;-76
2023/12/14 09:49:48;;;;;;;21.45;18.95;;;;;;;;;;10029127;28;20060;-77
2023/12/14 09:54:40;;;;;;;21.52;17.92;;;;;;;;;;10029128;28;20053;-76
2023/12/14 09:59:32;;;;;;;32.63;18.23;;;;;;;;;;10030773;28;20053;-76
2023/12/14 10:04:24;;;;;;;22.73;17.90;;;;;;;;;;10030335;28;20367;-76
2023/12/14 10:09:23;;;;;;;20.52;16.52;;;;;;;;;;10030113;28;20361;-76
2023/12/14 10:14:23;;;;;;;22.15;17.05;;;;;;;;;;10030252;28;20050;-77
2023/12/14 10:19:17;;;;;;;20.48;15.93;;;;;;;;;;10030211;28;20041;-76
2023/12/14 10:24:09;;;;;;;29.60;20.75;;;;;;;;;;10029539;28;20085;-75
2023/12/14 10:29:02;;;;;;;24.23;19.20;;;;;;;;;;10028475;28;20054;-76
2023/12/14 10:33:55;;;;;;;22.45;19.98;;;;;;;;;;10029457;28;20460;-77
2023/12/14 10:38:48;;;;;;;33.83;26.23;;;;;;;;;;10028893;28;20108;-76
2023/12/14 10:43:42;;;;;;;35.15;30.27;;;;;;;;;;10028355;28;20481;-76
2023/12/14 10:48:43;;;;;;;39.28;34.80;;;;;;;;;;10028613;28;20495;-76
2023/12/14 10:53:36;;;;;;;47.92;34.90;;;;;;;;;;10028348;28;20136;-76
2023/12/14 10:58:47;;;;;;;40.85;34.95;;;;;;;;;;10028825;28;20428;-76
2023/12/14 11:03:41;;;;;;;47.17;36.03;;;;;;;;;;10027761;28;20052;-75
2023/12/14 11:08:34;;;;;;;40.97;34.47;;;;;;;;;;10028174;28;20053;-76
2023/12/14 11:13:27;;;;;;;40.47;31.38;;;;;;;;;;10027651;28;20133;-76
2023/12/14 11:18:18;;;;;;;37.55;30.60;;;;;;;;;;10026294;28;20104;-77
2023/12/14 11:23:19;;;;;;;39.33;31.33;;;;;;;;;;10027286;28;20137;-76
2023/12/14 11:28:13;;;;;;;35.00;29.85;;;;;;;;;;10025991;28;20104;-77
2023/12/14 11:33:05;;;;;;;39.65;32.22;;;;;;;;;;10027016;28;20473;-77
2023/12/14 11:37:59;;;;;;;34.97;28.90;;;;;;;;;;10027131;28;20039;-76
2023/12/14 11:43:01;;;;;;;35.03;26.90;;;;;;;;;;10026134;28;20057;-77
2023/12/14 11:47:53;;;;;;;34.42;28.60;;;;;;;;;;10026822;28;20456;-77
2023/12/14 11:52:45;;;;;;;40.97;26.17;;;;;;;;;;10025992;28;20120;-76
2023/12/14 11:57:37;;;;;;;30.88;25.60;;;;;;;;;;10026415;28;20429;-76
2023/12/14 12:02:29;;;;;;;35.65;29.90;;;;;;;;;;10026027;28;20053;-77
2023/12/14 12:07:21;;;;;;;37.78;31.90;;;;;;;;;;10026369;28;20049;-76
2023/12/14 12:12:13;;;;;;;41.65;33.53;;;;;;;;;;10025600;28;20042;-76
2023/12/14 12:17:05;;;;;;;39.70;32.72;;;;;;;;;;10025759;28;20046;-76
2023/12/14 12:21:57;;;;;;;37.17;30.55;;;;;;;;;;10025898;28;20469;-76
2023/12/14 12:26:50;;;;;;;37.10;30.88;;;;;;;;;;10026136;28;20071;-75
2023/12/14 12:31:42;;;;;;;33.85;27.63;;;;;;;;;;10025581;28;20042;-75
2023/12/14 12:36:34;;;;;;;31.42;23.98;;;;;;;;;;10025320;28;20381;-76
2023/12/14 12:41:29;;;;;;;25.80;20.02;;;;;;;;;;10025403;28;20469;-77
2023/12/14 12:46:21;;;;;;;30.30;22.92;;;;;;;;;;10025589;28;20046;-77
2023/12/14 12:51:13;;;;;;;24.45;21.15;;;;;;;;;;10024403;28;20542;-78
2023/12/14 12:56:05;;;;;;;22.38;18.92;;;;;;;;;;10024895;28;20069;-77
2023/12/14 13:00:57;;;;;;;24.67;17.67;;;;;;;;;;10024805;28;20499;-77
2023/12/14 13:05:49;;;;;;;28.70;22.60;;;;;;;;;;10024735;28;20049;-76
2023/12/14 13:10:41;;;;;;;25.85;20.63;;;;;;;;;;10024607;28;20476;-77
2023/12/14 13:15:34;;;;;;;31.08;24.35;;;;;;;;;;10024661;28;20137;-76
2023/12/14 13:20:26;;;;;;;29.98;25.60;;;;;;;;;;10023679;28;20100;-77
2023/12/14 13:25:19;;;;;;;38.63;27.90;;;;;;;;;;10028776;28;20468;-76
2023/12/14 13:30:16;;;;;;;35.42;27.95;;;;;;;;;;10031480;28;20057;-76
2023/12/14 13:35:09;;;;;;;37.90;28.95;;;;;;;;;;10030774;28;20485;-76
2023/12/14 13:40:03;;;;;;;29.67;23.77;;;;;;;;;;10031014;28;20481;-76
2023/12/14 13:44:55;;;;;;;30.05;24.48;;;;;;;;;;10030416;28;20085;-75
2023/12/14 13:49:47;;;;;;;21.42;19.13;;;;;;;;;;10030327;28;20053;-77
2023/12/14 13:54:38;;;;;;;28.20;20.23;;;;;;;;;;10031018;28;20046;-76
2023/12/14 13:59:30;;;;;;;23.60;19.92;;;;;;;;;;10031108;28;20140;-77
2023/12/14 14:04:22;;;;;;;25.98;20.85;;;;;;;;;;10030303;28;20404;-78
2023/12/14 14:09:14;;;;;;;22.23;19.88;;;;;;;;;;10030465;28;20038;-77
2023/12/14 14:14:06;;;;;;;22.73;18.92;;;;;;;;;;10030183;28;20527;-77
2023/12/14 14:18:58;;;;;;;24.70;19.55;;;;;;;;;;10030128;28;20042;-77
2023/12/14 14:23:50;;;;;;;24.50;21.75;;;;;;;;;;10029234;28;20109;-78
2023/12/14 14:28:42;;;;;;;31.92;26.92;;;;;;;;;;10029127;28;20100;-77
2023/12/14 14:33:34;;;;;;;32.22;25.88;;;;;;;;;;10029216;28;20038;-76
2023/12/14 14:38:26;;;;;;;30.92;24.58;;;;;;;;;;10029556;28;20050;-75
2023/12/14 14:43:19;;;;;;;31.88;27.90;;;;;;;;;;10028082;28;20065;-77
2023/12/14 14:48:11;;;;;;;29.67;24.38;;;;;;;;;;10028777;28;20046;-75
2023/12/14 14:53:03;;;;;;;32.15;25.40;;;;;;;;;;10028994;28;20076;-77
2023/12/14 14:57:55;;;;;;;30.70;25.92;;;;;;;;;;10028621;28;20041;-76
2023/12/14 15:02:46;;;;;;;26.30;23.33;;;;;;;;;;10027600;28;20468;-77
2023/12/14 15:07:38;;;;;;;25.08;22.38;;;;;;;;;;10027844;28;20408;-77
2023/12/14 15:12:30;;;;;;;34.28;28.90;;;;;;;;;;10027873;28;20048;-77
2023/12/14 15:17:22;;;;;;;28.75;23.98;;;;;;;;;;10027626;28;20451;-78
2023/12/14 15:22:16;;;;;;;27.73;23.70;;;;;;;;;;10027348;28;20046;-76
2023/12/14 15:27:08;;;;;;;28.95;24.10;;;;;;;;;;10026784;28;20038;-77
2023/12/14 15:32:00;;;;;;;21.55;17.08;;;;;;;;;;10027280;28;20068;-77
2023/12/14 15:36:52;;;;;;;17.27;15.27;;;;;;;;;;10027053;28;20074;-77
2023/12/14 15:41:44;;;;;;;16.20;13.82;;;;;;;;;;10026354;28;20049;-77
2023/12/14 15:46:36;;;;;;;14.70;12.98;;;;;;;;;;10025802;28;20073;-75
2023/12/14 15:51:29;;;;;;;14.68;13.05;;;;;;;;;;10026631;28;20433;-78
2023/12/14 15:56:23;;;;;;;17.65;15.65;;;;;;;;;;10025457;28;20049;-76
2023/12/14 16:01:16;;;;;;;18.17;14.82;;;;;;;;;;10026016;28;20477;-76
2023/12/14 16:06:08;;;;;;;18.83;16.88;;;;;;;;;;10026294;28;20054;-77
2023/12/14 16:11:00;;;;;;;22.63;20.20;;;;;;;;;;10026190;28;20053;-77
2023/12/14 16:15:52;;;;;;;21.17;16.73;;;;;;;;;;10026307;28;20067;-77
2023/12/14 16:20:43;;;;;;;17.40;15.27;;;;;;;;;;10026243;28;20042;-76
2023/12/14 16:25:35;;;;;;;20.23;17.88;;;;;;;;;;10025570;28;20053;-77
2023/12/14 16:30:27;;;;;;;19.15;16.05;;;;;;;;;;10025644;28;20520;-75
2023/12/14 16:35:19;;;;;;;21.08;17.77;;;;;;;;;;10026218;28;20046;-77
2023/12/14 16:40:11;;;;;;;17.08;14.35;;;;;;;;;;10025726;28;20373;-77
2023/12/14 16:45:04;;;;;;;20.45;17.55;;;;;;;;;;10024220;28;20050;-77
2023/12/14 16:49:56;;;;;;;20.23;17.75;;;;;;;;;;10025358;28;20385;-76
2023/12/14 16:54:48;;;;;;;17.73;12.15;;;;;;;;;;10024251;28;20056;-77
2023/12/14 16:59:41;;;;;;;18.88;16.55;;;;;;;;;;10030933;28;20100;-76
2023/12/14 17:04:33;;;;;;;18.75;16.67;;;;;;;;;;10032784;28;20053;-76
2023/12/14 17:09:29;;;;;;;27.20;22.15;;;;;;;;;;10032792;28;20495;-75
2023/12/14 17:14:23;;;;;;;68.03;48.63;;;;;;;;;;10031859;28;20524;-76
2023/12/14 17:19:15;;;;;;;18.83;16.77;;;;;;;;;;10032636;28;20050;-76
2023/12/14 17:24:09;;;;;;;19.30;17.40;;;;;;;;;;10031715;28;20653;-76
2023/12/14 17:29:06;;;;;;;22.33;18.27;;;;;;;;;;10031717;28;20297;-76
2023/12/14 17:33:57;;;;;;;17.20;15.35;;;;;;;;;;10032144;28;20049;-77
2023/12/14 17:38:50;;;;;;;19.33;17.10;;;;;;;;;;10030767;28;20377;-77
2023/12/14 17:43:42;;;;;;;24.10;21.50;;;;;;;;;;10031372;28;20057;-76
2023/12/14 17:48:35;;;;;;;31.55;25.60;;;;;;;;;;10030788;28;20073;-76
2023/12/14 17:53:27;;;;;;;63.53;50.33;;;;;;;;;;10028748;28;20563;-76
2023/12/14 17:58:19;;;;;;;17.70;15.02;;;;;;;;;;10030731;28;20050;-76
2023/12/14 18:03:10;;;;;;;31.88;21.42;;;;;;;;;;10029906;28;20046;-77
2023/12/14 18:08:03;;;;;;;13.52;10.98;;;;;;;;;;10029226;28;20046;-77
2023/12/14 18:12:59;;;;;;;16.67;11.85;;;;;;;;;;10029823;28;20046;-77
2023/12/14 18:17:55;;;;;;;23.10;18.15;;;;;;;;;;10030442;28;20376;-77
2023/12/14 18:22:48;;;;;;;24.92;15.70;;;;;;;;;;10029311;28;20141;-77
2023/12/14 18:27:40;;;;;;;16.08;14.20;;;;;;;;;;10029415;28;20046;-77
2023/12/14 18:32:31;;;;;;;19.88;15.52;;;;;;;;;;10029049;28;20065;-77
2023/12/14 18:37:24;;;;;;;16.15;14.55;;;;;;;;;;10028868;28;20566;-77
2023/12/14 18:42:16;;;;;;;16.65;14.63;;;;;;;;;;10029141;28;20428;-77
2023/12/14 18:47:08;;;;;;;12.68;11.43;;;;;;;;;;10028326;28;20542;-77
2023/12/14 18:52:00;;;;;;;21.20;17.25;;;;;;;;;;10028133;28;20128;-77
2023/12/14 18:56:52;;;;;;;14.68;13.13;;;;;;;;;;10027900;28;20080;-77
2023/12/14 19:01:48;;;;;;;38.65;33.42;;;;;;;;;;10027811;28;20130;-77
2023/12/14 19:06:40;;;;;;;25.20;21.77;;;;;;;;;;10028340;28;20042;-77
2023/12/14 19:11:32;;;;;;;11.15;9.52;;;;;;;;;;10027938;28;20058;-77
2023/12/14 19:16:25;;;;;;;10.20;9.07;;;;;;;;;;10027742;28;20464;-77
2023/12/14 19:21:20;;;;;;;12.73;10.90;;;;;;;;;;10026609;28;20041;-77
2023/12/14 19:26:20;;;;;;;12.18;10.73;;;;;;;;;;10027497;28;20080;-77
2023/12/14 19:31:12;;;;;;;12.27;10.35;;;;;;;;;;10027178;28;20473;-77
2023/12/14 19:36:11;;;;;;;10.07;8.95;;;;;;;;;;10027118;28;20073;-77
2023/12/14 19:41:03;;;;;;;12.88;9.68;;;;;;;;;;10026325;28;20081;-77
2023/12/14 19:45:56;;;;;;;12.82;9.48;;;;;;;;;;10026589;28;20193;-77
2023/12/14 19:50:48;;;;;;;11.18;9.77;;;;;;;;;;10026243;28;20056;-78
2023/12/14 19:55:39;;;;;;;16.58;14.68;;;;;;;;;;10026620;28;20373;-76
2023/12/14 20:00:31;;;;;;;39.17;30.63;;;;;;;;;;10025786;28;20048;-77
2023/12/14 20:05:23;;;;;;;36.35;29.58;;;;;;;;;;10026225;28;20053;-77
2023/12/14 20:10:15;;;;;;;28.33;21.52;;;;;;;;;;10025401;28;20049;-77
2023/12/14 20:15:13;;;;;;;14.98;11.65;;;;;;;;;;10025087;28;20111;-77
2023/12/14 20:20:07;;;;;;;15.27;13.67;;;;;;;;;;10025661;28;20548;-75
2023/12/14 20:24:59;;;;;;;22.75;17.48;;;;;;;;;;10025426;28;20149;-77
2023/12/14 20:29:51;;;;;;;20.40;15.23;;;;;;;;;;10025387;28;20046;-77
2023/12/14 20:34:43;;;;;;;24.17;17.20;;;;;;;;;;10034906;28;20108;-76
2023/12/14 20:39:35;;;;;;;15.63;11.80;;;;;;;;;;10038258;28;20117;-77
2023/12/14 20:44:26;;;;;;;16.08;12.40;;;;;;;;;;10037961;28;20127;-77
2023/12/14 20:49:21;;;;;;;21.23;14.93;;;;;;;;;;10037753;28;20054;-77
2023/12/14 20:54:13;;;;;;;16.95;13.38;;;;;;;;;;10037487;28;20495;-77
2023/12/14 20:59:05;;;;;;;15.55;13.93;;;;;;;;;;10037998;28;20045;-77
2023/12/14 21:03:57;;;;;;;17.60;15.70;;;;;;;;;;10037858;28;20077;-77
2023/12/14 21:08:49;;;;;;;20.38;14.57;;;;;;;;;;10037427;28;20429;-77
2023/12/14 21:13:41;;;;;;;23.55;15.57;;;;;;;;;;10037922;28;20042;-76
2023/12/14 21:18:34;;;;;;;20.85;16.38;;;;;;;;;;10038049;28;20034;-77
2023/12/14 21:23:26;;;;;;;25.00;18.90;;;;;;;;;;10037401;28;20050;-77
2023/12/14 21:28:18;;;;;;;29.10;20.65;;;;;;;;;;10036577;28;20046;-77
2023/12/14 21:33:10;;;;;;;27.52;20.92;;;;;;;;;;10037610;28;20496;-77
2023/12/14 21:38:02;;;;;;;31.35;23.77;;;;;;;;;;10038145;28;20097;-77
2023/12/14 21:42:54;;;;;;;35.15;24.25;;;;;;;;;;10035401;28;20469;-77
2023/12/14 21:47:45;;;;;;;29.70;23.45;;;;;;;;;;10030827;28;20096;-76
2023/12/14 21:52:37;;;;;;;33.50;23.23;;;;;;;;;;10029152;28;20048;-78
2023/12/14 21:57:29;;;;;;;27.55;21.30;;;;;;;;;;10030741;28;20042;-77
2023/12/14 22:02:21;;;;;;;30.63;22.70;;;;;;;;;;10030187;28;20073;-77
2023/12/14 22:07:13;;;;;;;32.05;23.92;;;;;;;;;;10029253;28;20046;-76
2023/12/14 22:12:05;;;;;;;36.00;25.02;;;;;;;;;;10025117;28;20122;-76
2023/12/14 22:16:57;;;;;;;40.45;28.23;;;;;;;;;;10028829;28;20042;-75
2023/12/14 22:21:50;;;;;;;30.13;24.27;;;;;;;;;;10029369;28;20461;-78
2023/12/14 22:26:42;;;;;;;34.08;24.92;;;;;;;;;;10029588;28;20038;-76
2023/12/14 22:31:34;;;;;;;42.08;30.40;;;;;;;;;;10030203;28;20059;-77
2023/12/14 22:36:25;;;;;;;43.22;32.58;;;;;;;;;;10029512;28;20041;-77
2023/12/14 22:41:17;;;;;;;44.72;31.42;;;;;;;;;;10028191;28;20057;-77
2023/12/14 22:46:10;;;;;;;42.78;30.85;;;;;;;;;;10029278;28;20042;-77
2023/12/14 22:51:03;;;;;;;44.75;33.03;;;;;;;;;;10028789;28;20069;-77
2023/12/14 22:55:55;;;;;;;43.22;28.85;;;;;;;;;;10028285;28;20081;-77
2023/12/14 23:00:47;;;;;;;37.63;28.83;;;;;;;;;;10028071;28;20477;-76
2023/12/14 23:05:39;;;;;;;35.67;25.88;;;;;;;;;;10028430;28;20465;-78
2023/12/14 23:10:31;;;;;;;29.90;23.23;;;;;;;;;;10028035;28;20081;-77
2023/12/14 23:15:23;;;;;;;32.85;23.75;;;;;;;;;;10028144;28;20050;-77
2023/12/14 23:20:15;;;;;;;36.30;26.17;;;;;;;;;;10027895;28;20046;-77
2023/12/14 23:25:07;;;;;;;31.17;21.13;;;;;;;;;;10026941;28;20088;-77
2023/12/14 23:29:59;;;;;;;23.15;18.90;;;;;;;;;;10028166;28;20074;-76
2023/12/14 23:34:51;;;;;;;25.58;18.45;;;;;;;;;;10026783;28;20083;-77
2023/12/14 23:39:43;;;;;;;21.73;17.58;;;;;;;;;;10026988;28;20125;-77
2023/12/14 23:44:35;;;;;;;21.45;15.82;;;;;;;;;;10026317;28;20089;-77
2023/12/14 23:49:27;;;;;;;18.10;14.75;;;;;;;;;;10026326;28;20096;-77
2023/12/14 23:54:18;;;;;;;18.42;15.02;;;;;;;;;;10026352;28;20052;-77
2023/12/14 23:59:12;;;;;;;19.98;14.30;;;;;;;;;;10025803;28;20072;-77
